Terminal Aerodrome Forecast
Issued by NWS Binghamton, NY

Home | Current Version | Previous Version | Text Only | Print | Product List | Glossary On
Versions: 1 2 3 4 5 6 7 8 9 10 11 12 13 14 15 16 17 18 19 20 21
000
FTUS41 KBGM 231100
TAFAVP
TAF
KAVP 231132Z 2312/2412 21004KT P6SM SCT050 BKN080
     FM231800 19005KT P6SM BKN080
     FM240400 13003KT P6SM -SHRA OVC018 WS015/19040KT
     FM240700 14006KT 3SM -SHRA BR OVC012 WS015/15045KT=

USA.gov is the U.S. government's official web portal to all federal, state and local government web resources and services.